SOD U12-ZONE 1B - SL
Offical Recreational - Results

SOD U12-ZONE 1B

Jury
TD VINCENT T. BV
Referee MCVITTIE K. BV
Chief of Race DANIELS C. BV
Other Workers
Start Ref DUNLOP B. BV
Finish Ref DUNLOP G. BV
Race Admin WEBER J. BV
Chief of Timing SPARRNAY D. BV
Technical Data
Course Name
Start 365
Finish 292
Vertical Drop
Length
Homologation N/A
1st Run 2nd run
Course Setter MORRISON H. BV DEVIL J. DG
Number of Gates 32/31 32/31
Homologation N/A N/A
Forerunner 1 HALBERT R. BV STERLING A. BV
Forerunner 2 HALBERT D. BV GRAHAM E. BV
Forerunner 3 GIBSON J. BV TRICKY K. BV
Forerunner 4

Weather: OVERCAST

Snow:HARD PACKED

Temperature Start: -10 Temperature Finish: -8

Rank Card Bib Name Club YOB Category 1st Run 2nd run Total Time
1 85457 45 CLARK Elli TSCBM 05 U14 38.71 40.04 1:18.75
2 78427 42 DINARDO Olivia JOZOW 05 U14 41.48 40.98 1:22.46
3 78618 11 WAYLAND Lauren JOZOW 05 U14 40.80 41.98 1:22.78
4 87072 20 HEISZ Jamie MSFLD 05 U14 41.73 42.14 1:23.87
5 86218 36 SMITH Abigail BEAVR 05 U14 42.11 42.44 1:24.55
6 78511 38 MICK Bea JOZOW 05 U14 43.04 42.94 1:25.98
7 78535 9 PRIBOJ Emerson JOZOW 05 U14 43.81 44.72 1:28.53
8 74790 40 DIMKINA Kalina JOZOW 05 U14 44.46 44.51 1:28.97
9 81084 67 VOGEL Eva DEVGL 05 U14 45.16 44.17 1:29.33
10 87529 23 VOLPE Mia MSFLD 05 U14 44.86 44.90 1:29.76
11 78172 58 DREGER Lulu TSCBM 05 U14 45.19 45.54 1:30.73
12 82195 28 CHAN Abby DEVGL 05 U14 45.65 45.39 1:31.04
13 85738 41 WEAMES Camryn MSFLD 05 U14 45.35 45.75 1:31.10
14 87521 16 MCDANIEL Gabriella CALDN 05 U14 45.53 45.59 1:31.12
15 88365 13 LIST Kate CALDN 05 U14 45.55 46.75 1:32.30
16 79132 59 HARRIS Meghan BEAVR 05 U14 46.18 46.38 1:32.56
17 87074 35 MUNRO Carly MSFLD 05 U14 46.79 45.93 1:32.72
18 86273 55 MCCANNELL Jamie TSCBM 05 U14 46.90 46.27 1:33.17
19 84753 34 GINGERICH Robyn TSCBM 06 U12 46.88 46.30 1:33.18
20 85840 54 RODRIGUES Isabelle DEVGL 06 U12 47.08 46.43 1:33.51
21 72087 49 RIDE Madison DEVGL 05 U14 47.71 46.13 1:33.84
22 85967 64 PRICE Marley BEAVR 05 U14 46.78 47.17 1:33.95
23 78516 60 MURDOCH Antonia JOZOW 05 U14 48.02 46.05 1:34.07
24 82248 29 OLIVER Arwen BEAVR 06 U12 47.10 46.98 1:34.08
25 88417 22 MCINTYRE SALINAS Suri?E CALDN 05 U14 47.74 46.95 1:34.69
26 78617 50 WAYLAND Ashley JOZOW 06 U12 47.72 47.41 1:35.13
27 87874 18 KOREEN Tessa CALDN 05 U14 47.43 48.50 1:35.93
28 80746 63 JEDRZEJEWSKI Julianne DEVGL 06 U12 48.63 47.70 1:36.33
29 82095 65 MACKAY Charlotte JOZOW 05 U14 48.86 47.69 1:36.55
30 86246 44 BELLAMY Fiona DEVGL 06 U12 48.57 48.12 1:36.69
31 89525 37 LANGFORD Genevieve JOZOW 06 U12 48.21 48.77 1:36.98
32 85968 4 CHAPMAN Chloe BEAVR 05 U14 48.06 48.93 1:36.99
33 78387 26 BULAU Zofia (Zoe) JOZOW 05 U14 47.87 49.19 1:37.06
34 91306 61 BARNES Kate MSKSC 08 U10 48.92 48.21 1:37.13
35 80631 56 HYMUS Tara BEAVR 05 U14 49.41 48.05 1:37.46
36 85799 43 CONLIFFE Alexandra TSCBM 06 U12 49.29 48.46 1:37.75
37 80694 52 KORNBERG Talia DEVGL 05 U14 49.16 48.61 1:37.77
38 88416 5 LAWSON Alexandria MSFLD 05 U14 51.22 47.62 1:38.84
39 88241 7 STOPPENBRINK Katie MSFLD 05 U14 50.26 48.76 1:39.02
40 88376 1 DENNIS Kate MSFLD 05 U14 49.95 50.00 1:39.95
41 85577 66 HORAN Tori TSCBM 06 U12 51.18 49.54 1:40.72
42 91013 21 PROCTOR Jordan CALDN 06 U12 51.47 49.68 1:41.15
43 78697 48 DALRYMPLE Jenna BEAVR 05 U14 51.60 49.93 1:41.53
44 86677 2 REID Ivy TSCBM 06 U12 49.18 52.99 1:42.17
45 85752 31 MARSHALL Abigail DEVGL 06 U12 51.25 51.35 1:42.60
46 88570 17 HUNTER Brooklyn TSCBM 06 U12 56.26 46.43 1:42.69
47 78580 30 STEINER Maia JOZOW 06 U12 56.73 46.50 1:43.23
48 87071 27 BECHARD Taylor MSFLD 05 U14 51.84 51.67 1:43.51
49 85554 14 MURRAY Olivia BEAVR 05 U14 50.83 52.72 1:43.55
50 88071 32 LEE Kathryn OSLER 06 U12 52.47 55.37 1:47.84
51 88379 53 TRIPP Kate MSFLD 05 U14 57.15 51.20 1:48.35
52 85584 51 MACLACHLAN Molly DEVGL 06 U12 54.93 54.55 1:49.48
53 88380 33 WILKINS Rory MSFLD 05 U14 56.24 56.92 1:53.16
54 88062 46 MAZZUCA Danielle MSFLD 05 U14 56.58 58.69 1:55.27
55 85886 47 SORO Robyn TSCBM 05 U14 57.97 58.68 1:56.65
56 88377 8 MCGEE Sophia MSFLD 05 U14 59.14 1:00.06 1:59.20
57 85570 39 MACLAREN Cameron TSCBM 06 U12 59.93 1:00.02 1:59.95
58 91595 3 JOYAL Peyton DEVGL 06 U12 1:01.00 1:02.55 2:03.55
999 91271 6 MCGHIE Dilynn SKYLO 05 U14 DNS DNS
999 76743 10 KALINS Nora TSCBM 05 U14 DNS DNS
999 86268 12 CAMPBELL Holly DEVGL 06 U12 DNS DNS
999 76810 62 PIRIE Paige TSCBM 02 U16 DNS DNS
999 85304 15 LECKER Eliza DEVGL 06 U12 DNF DNS
999 78818 25 RORABECK Sophie BEAVR 05 U14 DNF DNS
999 78353 57 ACTON Bridget JOZOW 06 U12 DNF DNS
999 85578 19 BARTLETT Addison BEAVR 06 U12 044.60 DNF
999 88248 24 WIGGAN Sophie CALDN 05 U14 044.88 DNF
14/01/2017 / Beaver Valley Ski Club / REC17.5018